METAR Data
IDs: Format: Raw Decoded Include TAF

Data at: 2027 UTC 18 Apr 2021

EBDT 181955Z AUTO 32007KT 9999 BKN210/// 09/05 Q1022 BLU